sensor_id;sensor_type;location;lat;lon;timestamp;P1;durP1;ratioP1;P2;durP2;ratioP2
54917;SDS011;40818;50.562;7.454;2024-01-30T00:01:47;6.75;;;1.70;;
54917;SDS011;40818;50.562;7.454;2024-01-30T00:11:52;4.90;;;1.77;;
54917;SDS011;40818;50.562;7.454;2024-01-30T00:21:58;7.05;;;2.05;;
54917;SDS011;40818;50.562;7.454;2024-01-30T00:32:01;7.35;;;1.55;;
54917;SDS011;40818;50.562;7.454;2024-01-30T00:42:07;8.77;;;1.90;;
54917;SDS011;40818;50.562;7.454;2024-01-30T00:52:11;8.57;;;2.38;;
54917;SDS011;40818;50.562;7.454;2024-01-30T01:02:17;8.25;;;2.15;;
54917;SDS011;40818;50.562;7.454;2024-01-30T01:12:20;9.77;;;2.00;;
54917;SDS011;40818;50.562;7.454;2024-01-30T01:22:26;6.80;;;3.03;;
54917;SDS011;40818;50.562;7.454;2024-01-30T01:32:30;11.00;;;2.65;;
54917;SDS011;40818;50.562;7.454;2024-01-30T01:42:36;15.75;;;4.25;;
54917;SDS011;40818;50.562;7.454;2024-01-30T01:52:40;9.35;;;2.20;;
54917;SDS011;40818;50.562;7.454;2024-01-30T02:02:47;7.40;;;2.28;;
54917;SDS011;40818;50.562;7.454;2024-01-30T02:12:51;9.40;;;2.60;;
54917;SDS011;40818;50.562;7.454;2024-01-30T02:22:57;8.15;;;2.88;;
54917;SDS011;40818;50.562;7.454;2024-01-30T02:33:03;10.88;;;2.67;;
54917;SDS011;40818;50.562;7.454;2024-01-30T02:43:09;7.72;;;3.00;;
54917;SDS011;40818;50.562;7.454;2024-01-30T02:53:12;13.50;;;3.08;;
54917;SDS011;40818;50.562;7.454;2024-01-30T03:03:18;9.90;;;2.03;;
54917;SDS011;40818;50.562;7.454;2024-01-30T03:13:22;8.40;;;2.17;;
54917;SDS011;40818;50.562;7.454;2024-01-30T03:23:29;5.95;;;1.67;;
54917;SDS011;40818;50.562;7.454;2024-01-30T03:33:32;5.60;;;1.83;;
54917;SDS011;40818;50.562;7.454;2024-01-30T03:43:38;7.45;;;2.13;;
54917;SDS011;40818;50.562;7.454;2024-01-30T03:53:42;9.75;;;1.52;;
54917;SDS011;40818;50.562;7.454;2024-01-30T04:03:49;9.10;;;1.77;;
54917;SDS011;40818;50.562;7.454;2024-01-30T04:13:52;6.03;;;1.65;;
54917;SDS011;40818;50.562;7.454;2024-01-30T04:23:58;6.68;;;1.80;;
54917;SDS011;40818;50.562;7.454;2024-01-30T04:34:01;6.55;;;2.00;;
54917;SDS011;40818;50.562;7.454;2024-01-30T04:44:07;9.73;;;2.03;;
54917;SDS011;40818;50.562;7.454;2024-01-30T04:54:11;12.30;;;2.70;;
54917;SDS011;40818;50.562;7.454;2024-01-30T05:04:17;6.40;;;2.63;;
54917;SDS011;40818;50.562;7.454;2024-01-30T05:14:20;11.05;;;2.40;;
54917;SDS011;40818;50.562;7.454;2024-01-30T05:24:26;8.80;;;2.08;;
54917;SDS011;40818;50.562;7.454;2024-01-30T05:34:29;9.43;;;2.30;;
54917;SDS011;40818;50.562;7.454;2024-01-30T05:44:35;5.95;;;2.22;;
54917;SDS011;40818;50.562;7.454;2024-01-30T05:54:39;10.63;;;3.13;;
54917;SDS011;40818;50.562;7.454;2024-01-30T06:04:45;6.55;;;2.35;;
54917;SDS011;40818;50.562;7.454;2024-01-30T06:14:49;8.45;;;2.60;;
54917;SDS011;40818;50.562;7.454;2024-01-30T06:24:57;11.23;;;2.72;;
54917;SDS011;40818;50.562;7.454;2024-01-30T06:35:00;8.27;;;2.90;;
54917;SDS011;40818;50.562;7.454;2024-01-30T06:45:07;14.10;;;5.10;;
54917;SDS011;40818;50.562;7.454;2024-01-30T06:55:11;16.92;;;4.25;;
54917;SDS011;40818;50.562;7.454;2024-01-30T07:05:17;10.10;;;3.28;;
54917;SDS011;40818;50.562;7.454;2024-01-30T07:15:22;9.30;;;2.53;;
54917;SDS011;40818;50.562;7.454;2024-01-30T07:25:28;12.70;;;3.88;;
54917;SDS011;40818;50.562;7.454;2024-01-30T07:35:31;12.20;;;4.85;;
54917;SDS011;40818;50.562;7.454;2024-01-30T07:45:37;10.15;;;3.97;;
54917;SDS011;40818;50.562;7.454;2024-01-30T07:55:41;8.30;;;4.22;;
54917;SDS011;40818;50.562;7.454;2024-01-30T08:05:49;11.27;;;3.72;;
54917;SDS011;40818;50.562;7.454;2024-01-30T08:15:53;11.90;;;4.57;;
54917;SDS011;40818;50.562;7.454;2024-01-30T08:25:59;7.88;;;2.55;;
54917;SDS011;40818;50.562;7.454;2024-01-30T08:36:02;9.55;;;3.55;;
54917;SDS011;40818;50.562;7.454;2024-01-30T08:46:09;9.40;;;3.53;;
54917;SDS011;40818;50.562;7.454;2024-01-30T08:56:12;8.23;;;2.00;;
54917;SDS011;40818;50.562;7.454;2024-01-30T09:06:19;13.60;;;5.10;;
54917;SDS011;40818;50.562;7.454;2024-01-30T09:16:22;11.73;;;2.90;;
54917;SDS011;40818;50.562;7.454;2024-01-30T09:26:28;10.27;;;2.20;;
54917;SDS011;40818;50.562;7.454;2024-01-30T09:36:32;10.98;;;2.65;;
54917;SDS011;40818;50.562;7.454;2024-01-30T09:46:38;7.65;;;3.42;;
54917;SDS011;40818;50.562;7.454;2024-01-30T09:56:42;7.68;;;3.05;;
54917;SDS011;40818;50.562;7.454;2024-01-30T10:06:48;11.65;;;2.35;;
54917;SDS011;40818;50.562;7.454;2024-01-30T10:16:52;13.23;;;3.35;;
54917;SDS011;40818;50.562;7.454;2024-01-30T10:26:58;5.60;;;2.03;;
54917;SDS011;40818;50.562;7.454;2024-01-30T10:37:06;6.55;;;1.77;;
54917;SDS011;40818;50.562;7.454;2024-01-30T10:47:15;8.38;;;1.95;;
54917;SDS011;40818;50.562;7.454;2024-01-30T10:57:25;4.30;;;1.50;;
54917;SDS011;40818;50.562;7.454;2024-01-30T11:07:31;8.18;;;1.85;;
54917;SDS011;40818;50.562;7.454;2024-01-30T11:17:42;6.97;;;1.90;;
54917;SDS011;40818;50.562;7.454;2024-01-30T11:27:49;10.15;;;2.58;;
54917;SDS011;40818;50.562;7.454;2024-01-30T11:37:54;5.93;;;1.73;;
54917;SDS011;40818;50.562;7.454;2024-01-30T11:48:00;8.60;;;2.20;;
54917;SDS011;40818;50.562;7.454;2024-01-30T11:58:05;6.80;;;1.80;;
54917;SDS011;40818;50.562;7.454;2024-01-30T12:08:16;10.13;;;2.38;;
54917;SDS011;40818;50.562;7.454;2024-01-30T12:18:19;7.37;;;2.40;;
54917;SDS011;40818;50.562;7.454;2024-01-30T12:28:25;7.38;;;2.22;;
54917;SDS011;40818;50.562;7.454;2024-01-30T12:38:29;7.22;;;1.70;;
54917;SDS011;40818;50.562;7.454;2024-01-30T12:48:35;15.27;;;2.53;;
54917;SDS011;40818;50.562;7.454;2024-01-30T12:58:39;11.45;;;2.38;;
54917;SDS011;40818;50.562;7.454;2024-01-30T13:08:45;10.07;;;2.20;;
54917;SDS011;40818;50.562;7.454;2024-01-30T13:18:49;6.13;;;1.48;;
54917;SDS011;40818;50.562;7.454;2024-01-30T13:28:57;7.38;;;2.30;;
54917;SDS011;40818;50.562;7.454;2024-01-30T13:39:00;8.07;;;2.20;;
54917;SDS011;40818;50.562;7.454;2024-01-30T13:49:08;5.18;;;1.80;;
54917;SDS011;40818;50.562;7.454;2024-01-30T13:59:11;6.30;;;1.83;;
54917;SDS011;40818;50.562;7.454;2024-01-30T14:09:17;5.25;;;1.50;;
54917;SDS011;40818;50.562;7.454;2024-01-30T14:19:21;9.85;;;2.47;;
54917;SDS011;40818;50.562;7.454;2024-01-30T14:29:27;7.07;;;2.33;;
54917;SDS011;40818;50.562;7.454;2024-01-30T14:39:30;6.75;;;1.95;;
54917;SDS011;40818;50.562;7.454;2024-01-30T14:49:42;7.05;;;2.00;;
54917;SDS011;40818;50.562;7.454;2024-01-30T14:59:45;5.05;;;1.60;;
54917;SDS011;40818;50.562;7.454;2024-01-30T15:09:51;8.73;;;1.70;;
54917;SDS011;40818;50.562;7.454;2024-01-30T15:19:55;9.45;;;1.98;;
54917;SDS011;40818;50.562;7.454;2024-01-30T15:30:01;7.63;;;1.52;;
54917;SDS011;40818;50.562;7.454;2024-01-30T15:40:05;5.80;;;1.50;;
54917;SDS011;40818;50.562;7.454;2024-01-30T15:50:13;4.50;;;1.70;;
54917;SDS011;40818;50.562;7.454;2024-01-30T16:00:16;9.80;;;2.00;;
54917;SDS011;40818;50.562;7.454;2024-01-30T16:10:23;7.68;;;2.22;;
54917;SDS011;40818;50.562;7.454;2024-01-30T16:20:27;5.95;;;2.03;;
54917;SDS011;40818;50.562;7.454;2024-01-30T16:30:33;9.57;;;2.00;;
54917;SDS011;40818;50.562;7.454;2024-01-30T16:40:36;4.63;;;1.90;;
54917;SDS011;40818;50.562;7.454;2024-01-30T16:50:42;8.65;;;2.70;;
54917;SDS011;40818;50.562;7.454;2024-01-30T17:00:45;10.30;;;2.13;;
54917;SDS011;40818;50.562;7.454;2024-01-30T17:10:51;10.20;;;2.13;;
54917;SDS011;40818;50.562;7.454;2024-01-30T17:20:55;5.80;;;2.38;;
54917;SDS011;40818;50.562;7.454;2024-01-30T17:31:01;10.07;;;2.85;;
54917;SDS011;40818;50.562;7.454;2024-01-30T17:41:04;8.52;;;3.35;;
54917;SDS011;40818;50.562;7.454;2024-01-30T17:51:11;15.48;;;3.25;;
54917;SDS011;40818;50.562;7.454;2024-01-30T18:01:14;10.82;;;3.03;;
54917;SDS011;40818;50.562;7.454;2024-01-30T18:11:21;9.13;;;2.30;;
54917;SDS011;40818;50.562;7.454;2024-01-30T18:21:25;12.75;;;6.18;;
54917;SDS011;40818;50.562;7.454;2024-01-30T18:31:32;14.05;;;4.32;;
54917;SDS011;40818;50.562;7.454;2024-01-30T18:41:35;10.32;;;2.03;;
54917;SDS011;40818;50.562;7.454;2024-01-30T18:51:41;14.25;;;5.55;;
54917;SDS011;40818;50.562;7.454;2024-01-30T19:01:45;14.45;;;3.72;;
54917;SDS011;40818;50.562;7.454;2024-01-30T19:11:51;6.75;;;3.08;;
54917;SDS011;40818;50.562;7.454;2024-01-30T19:21:55;5.85;;;1.40;;
54917;SDS011;40818;50.562;7.454;2024-01-30T19:32:01;9.43;;;2.00;;
54917;SDS011;40818;50.562;7.454;2024-01-30T19:42:05;3.10;;;0.60;;
54917;SDS011;40818;50.562;7.454;2024-01-30T19:52:11;2.85;;;0.43;;
54917;SDS011;40818;50.562;7.454;2024-01-30T20:02:15;5.82;;;0.90;;
54917;SDS011;40818;50.562;7.454;2024-01-30T20:12:22;5.07;;;2.10;;
54917;SDS011;40818;50.562;7.454;2024-01-30T20:22:26;2.65;;;0.70;;
54917;SDS011;40818;50.562;7.454;2024-01-30T20:32:32;3.28;;;0.63;;
54917;SDS011;40818;50.562;7.454;2024-01-30T20:42:36;3.15;;;0.50;;
54917;SDS011;40818;50.562;7.454;2024-01-30T20:52:42;7.53;;;0.60;;
54917;SDS011;40818;50.562;7.454;2024-01-30T21:02:45;3.55;;;0.40;;
54917;SDS011;40818;50.562;7.454;2024-01-30T21:12:51;2.88;;;0.50;;
54917;SDS011;40818;50.562;7.454;2024-01-30T21:22:54;1.70;;;0.40;;
54917;SDS011;40818;50.562;7.454;2024-01-30T21:33:00;1.85;;;0.43;;
54917;SDS011;40818;50.562;7.454;2024-01-30T21:43:04;4.20;;;0.70;;
54917;SDS011;40818;50.562;7.454;2024-01-30T21:53:10;3.88;;;0.40;;
54917;SDS011;40818;50.562;7.454;2024-01-30T22:03:13;6.57;;;0.43;;
54917;SDS011;40818;50.562;7.454;2024-01-30T22:13:19;2.47;;;0.30;;
54917;SDS011;40818;50.562;7.454;2024-01-30T22:23:24;2.88;;;0.35;;
54917;SDS011;40818;50.562;7.454;2024-01-30T22:33:30;2.58;;;0.40;;
54917;SDS011;40818;50.562;7.454;2024-01-30T22:43:34;2.90;;;0.30;;
54917;SDS011;40818;50.562;7.454;2024-01-30T22:53:41;3.30;;;0.30;;
54917;SDS011;40818;50.562;7.454;2024-01-30T23:03:46;1.67;;;0.30;;
54917;SDS011;40818;50.562;7.454;2024-01-30T23:13:52;2.30;;;0.30;;
54917;SDS011;40818;50.562;7.454;2024-01-30T23:23:55;2.25;;;0.30;;
54917;SDS011;40818;50.562;7.454;2024-01-30T23:34:02;3.55;;;0.30;;
54917;SDS011;40818;50.562;7.454;2024-01-30T23:44:05;1.73;;;0.20;;
54917;SDS011;40818;50.562;7.454;2024-01-30T23:54:11;3.78;;;0.20;;
